createdAt,value
2024-01-16T00:00:00.603Z,72.94
2024-01-16T00:01:00.725Z,72.94
2024-01-16T00:02:00.665Z,71.70
2024-01-16T00:03:00.827Z,71.18
2024-01-16T00:04:00.680Z,71.56
2024-01-16T00:05:00.574Z,72.49
2024-01-16T00:06:00.580Z,72.18
2024-01-16T00:07:00.576Z,72.94
2024-01-16T00:08:00.569Z,73.15
2024-01-16T00:09:00.762Z,72.49
2024-01-16T00:10:00.514Z,71.84
2024-01-16T00:11:00.444Z,71.39
2024-01-16T00:12:00.429Z,70.87
2024-01-16T00:13:00.403Z,70.49
2024-01-16T00:14:00.482Z,71.91
2024-01-16T00:15:00.462Z,72.63
2024-01-16T00:16:00.427Z,72.49
2024-01-16T00:17:00.469Z,71.94
2024-01-16T00:18:01.909Z,72.22
2024-01-16T00:19:00.400Z,72.49
2024-01-16T00:20:00.320Z,72.15
2024-01-16T00:21:00.370Z,71.94
2024-01-16T00:22:00.325Z,71.18
2024-01-16T00:23:00.336Z,70.67
2024-01-16T00:24:00.302Z,71.01
2024-01-16T00:25:00.393Z,71.01
2024-01-16T00:26:00.296Z,71.11
2024-01-16T00:27:00.260Z,71.91
2024-01-16T00:28:00.235Z,72.08
2024-01-16T00:29:00.251Z,72.18
2024-01-16T00:30:00.334Z,71.73
2024-01-16T00:31:00.209Z,70.97
2024-01-16T00:32:00.252Z,71.04
2024-01-16T00:33:00.271Z,71.77
2024-01-16T00:34:00.277Z,71.63
2024-01-16T00:35:00.238Z,71.22
2024-01-16T00:36:00.174Z,71.42
2024-01-16T00:37:00.149Z,71.45
2024-01-16T00:38:00.373Z,72.32
2024-01-16T00:39:00.165Z,72.49
2024-01-16T00:40:00.165Z,71.53
2024-01-16T00:41:00.110Z,71.35
2024-01-16T00:42:00.085Z,71.73
2024-01-16T00:43:00.080Z,71.22
2024-01-16T00:44:00.269Z,70.56
2024-01-16T00:45:00.116Z,70.15
2024-01-16T00:46:00.065Z,70.32
2024-01-16T00:47:00.207Z,69.84
2024-01-16T00:48:00.150Z,70.36
2024-01-16T00:49:00.340Z,70.56
2024-01-16T00:50:00.102Z,70.73
2024-01-16T00:50:59.984Z,72.01
2024-01-16T00:52:00.037Z,72.28
2024-01-16T00:52:59.985Z,72.01
2024-01-16T00:53:59.952Z,72.18
2024-01-16T00:54:59.974Z,71.04
2024-01-16T00:55:59.921Z,69.90
2024-01-16T00:56:59.907Z,70.31
2024-01-16T00:57:59.899Z,71.45
2024-01-16T00:58:59.898Z,71.77
2024-01-16T00:59:59.966Z,71.97
2024-01-16T01:00:59.964Z,71.66
2024-01-16T01:01:59.851Z,71.66
2024-01-16T01:02:59.971Z,71.22
2024-01-16T01:04:00.013Z,71.63
2024-01-16T01:04:59.887Z,71.11
2024-01-16T01:05:59.892Z,70.90
2024-01-16T01:06:59.881Z,71.25
2024-01-16T01:07:59.791Z,71.42
2024-01-16T01:08:59.780Z,71.66
2024-01-16T01:09:59.778Z,71.53
2024-01-16T01:10:59.806Z,70.76
2024-01-16T01:11:59.748Z,70.21
2024-01-16T01:12:59.868Z,70.04
2024-01-16T01:14:00.194Z,70.80
2024-01-16T01:14:59.836Z,71.84
2024-01-16T01:15:59.735Z,71.66
2024-01-16T01:16:59.751Z,72.05
2024-01-16T01:18:00.032Z,71.87
2024-01-16T01:19:00.009Z,71.91
2024-01-16T01:19:59.716Z,71.08
2024-01-16T01:20:59.761Z,70.46
2024-01-16T01:21:59.730Z,70.90
2024-01-16T01:22:59.684Z,71.42
2024-01-16T01:23:59.740Z,71.32
2024-01-16T01:25:00.115Z,72.18
2024-01-16T01:25:59.670Z,72.63
2024-01-16T01:26:59.654Z,73.01
2024-01-16T01:27:59.650Z,72.46
2024-01-16T01:28:59.613Z,71.39
2024-01-16T01:29:59.671Z,71.15
2024-01-16T01:31:00.039Z,70.80
2024-01-16T01:31:59.594Z,71.56
2024-01-16T01:32:59.790Z,72.28
2024-01-16T01:33:59.689Z,72.84
2024-01-16T01:34:59.561Z,72.70
2024-01-16T01:35:59.494Z,72.25
2024-01-16T01:36:59.543Z,71.42
2024-01-16T01:37:59.543Z,71.32
2024-01-16T01:38:59.573Z,71.53
2024-01-16T01:39:59.524Z,71.42
2024-01-16T01:40:59.501Z,70.97
2024-01-16T01:41:59.547Z,71.11
2024-01-16T01:42:59.461Z,71.77
2024-01-16T01:43:59.489Z,72.88
2024-01-16T01:44:59.457Z,71.91
2024-01-16T01:45:59.431Z,72.01
2024-01-16T01:46:59.392Z,71.04
2024-01-16T01:47:59.621Z,71.42
2024-01-16T01:48:59.466Z,71.22
2024-01-16T01:49:59.365Z,72.15
2024-01-16T01:50:59.429Z,72.18
2024-01-16T01:51:59.374Z,72.05
2024-01-16T01:52:59.330Z,71.73
2024-01-16T01:53:59.652Z,72.05
2024-01-16T01:54:59.327Z,71.39
2024-01-16T01:55:59.347Z,71.22
2024-01-16T01:56:59.273Z,72.53
2024-01-16T01:57:59.262Z,72.91
2024-01-16T01:58:59.360Z,72.46
2024-01-16T01:59:59.294Z,71.87
2024-01-16T02:00:59.271Z,72.91
2024-01-16T02:01:59.232Z,71.91
2024-01-16T02:02:59.262Z,71.11
2024-01-16T02:03:59.210Z,72.08
2024-01-16T02:04:59.289Z,71.59
2024-01-16T02:05:59.360Z,70.94
2024-01-16T02:06:59.140Z,71.08
2024-01-16T02:07:59.166Z,70.84
2024-01-16T02:08:59.121Z,69.98
2024-01-16T02:09:59.182Z,69.90
2024-01-16T02:10:59.167Z,70.56
2024-01-16T02:11:59.126Z,70.87
2024-01-16T02:12:59.139Z,71.04
2024-01-16T02:13:59.165Z,71.18
2024-01-16T02:14:59.089Z,71.01
2024-01-16T02:15:59.114Z,70.67
2024-01-16T02:16:59.059Z,71.22
2024-01-16T02:17:59.139Z,71.11
2024-01-16T02:18:59.076Z,71.80
2024-01-16T02:19:59.059Z,72.18
2024-01-16T02:20:59.006Z,71.87
2024-01-16T02:21:59.056Z,72.15
2024-01-16T02:22:59.020Z,71.53
2024-01-16T02:23:59.033Z,71.42
2024-01-16T02:24:59.033Z,71.04
2024-01-16T02:25:59.044Z,70.21
2024-01-16T02:26:58.982Z,70.56
2024-01-16T02:27:58.982Z,70.42
2024-01-16T02:28:58.949Z,71.01
2024-01-16T02:29:58.903Z,72.05
2024-01-16T02:30:58.921Z,72.56
2024-01-16T02:31:58.893Z,72.60
2024-01-16T02:32:58.988Z,71.73
2024-01-16T02:33:58.941Z,71.15
2024-01-16T02:34:58.893Z,71.88
2024-01-16T02:35:58.907Z,71.53
2024-01-16T02:36:58.894Z,71.29
2024-01-16T02:37:58.937Z,71.39
2024-01-16T02:38:58.865Z,72.19
2024-01-16T02:39:58.778Z,71.60
2024-01-16T02:40:58.876Z,71.36
2024-01-16T02:41:58.843Z,72.01
2024-01-16T02:42:58.895Z,72.53
2024-01-16T02:43:58.907Z,72.29
2024-01-16T02:44:58.883Z,72.32
2024-01-16T02:45:58.796Z,72.53
2024-01-16T02:46:58.704Z,73.08
2024-01-16T02:47:58.849Z,73.28
2024-01-16T02:48:58.825Z,72.94
2024-01-16T02:49:58.739Z,72.84
2024-01-16T02:50:58.714Z,72.63
2024-01-16T02:51:58.703Z,72.39
2024-01-16T02:52:58.870Z,71.84
2024-01-16T02:53:58.658Z,71.46
2024-01-16T02:54:58.645Z,71.39
2024-01-16T02:55:58.684Z,70.15
2024-01-16T02:56:58.630Z,69.84
2024-01-16T02:57:58.705Z,70.36
2024-01-16T02:58:58.627Z,70.26
2024-01-16T02:59:58.641Z,70.15
2024-01-16T03:00:58.546Z,70.29
2024-01-16T03:02:00.002Z,70.39
2024-01-16T03:02:58.640Z,70.67
2024-01-16T03:03:58.585Z,70.84
2024-01-16T03:04:58.673Z,71.49
2024-01-16T03:05:59.483Z,72.11
2024-01-16T03:06:58.568Z,72.32
2024-01-16T03:07:58.485Z,71.73
2024-01-16T03:08:58.595Z,70.87
2024-01-16T03:09:58.526Z,70.18
2024-01-16T03:10:58.490Z,70.81
2024-01-16T03:11:58.517Z,70.67
2024-01-16T03:12:58.473Z,70.22
2024-01-16T03:13:58.404Z,69.64
2024-01-16T03:14:58.524Z,70.26
2024-01-16T03:15:58.475Z,70.26
2024-01-16T03:16:58.436Z,70.70
2024-01-16T03:17:58.454Z,71.01
2024-01-16T03:18:58.477Z,71.67
2024-01-16T03:19:58.392Z,72.36
2024-01-16T03:20:58.423Z,72.50
2024-01-16T03:21:58.353Z,72.05
2024-01-16T03:22:58.321Z,71.53
2024-01-16T03:23:58.383Z,71.88
2024-01-16T03:24:58.280Z,72.11
2024-01-16T03:25:58.384Z,72.53
2024-01-16T03:26:58.298Z,71.98
2024-01-16T03:27:58.286Z,72.08
2024-01-16T03:28:58.265Z,72.08
2024-01-16T03:29:58.313Z,71.63
2024-01-16T03:30:58.327Z,71.53
2024-01-16T03:31:58.225Z,71.77
2024-01-16T03:32:58.337Z,71.67
2024-01-16T03:33:58.316Z,72.08
2024-01-16T03:34:58.130Z,71.91
2024-01-16T03:35:58.191Z,71.88
2024-01-16T03:36:58.169Z,73.32
2024-01-16T03:37:58.208Z,73.60
2024-01-16T03:38:58.133Z,73.15
2024-01-16T03:39:58.157Z,72.60
2024-01-16T03:40:58.153Z,72.29
2024-01-16T03:41:58.132Z,71.67
2024-01-16T03:42:58.071Z,71.56
2024-01-16T03:43:58.121Z,72.11
2024-01-16T03:44:58.161Z,71.67
2024-01-16T03:45:58.078Z,71.88
2024-01-16T03:46:58.037Z,71.98
2024-01-16T03:47:58.236Z,71.53
2024-01-16T03:48:58.085Z,71.56
2024-01-16T03:49:58.034Z,71.43
2024-01-16T03:50:58.174Z,71.15
2024-01-16T03:51:58.039Z,71.56
2024-01-16T03:52:57.963Z,71.80
2024-01-16T03:53:57.914Z,72.42
2024-01-16T03:54:57.890Z,72.67
2024-01-16T03:55:57.952Z,72.53
2024-01-16T03:56:57.878Z,72.42
2024-01-16T03:57:57.891Z,72.19
2024-01-16T03:58:57.872Z,72.36
2024-01-16T03:59:57.854Z,72.36
2024-01-16T04:00:57.899Z,72.05
2024-01-16T04:01:57.874Z,72.25
2024-01-16T04:02:57.931Z,71.94
2024-01-16T04:03:57.861Z,72.60
2024-01-16T04:04:57.803Z,73.22
2024-01-16T04:05:57.949Z,72.88
2024-01-16T04:06:57.758Z,72.88
2024-01-16T04:07:57.933Z,72.15
2024-01-16T04:08:57.742Z,72.67
2024-01-16T04:09:57.732Z,72.91
2024-01-16T04:10:57.764Z,72.32
2024-01-16T04:11:57.743Z,71.80
2024-01-16T04:12:57.691Z,71.73
2024-01-16T04:13:57.807Z,72.36
2024-01-16T04:14:57.678Z,72.67
2024-01-16T04:15:57.665Z,72.56
2024-01-16T04:16:57.677Z,72.36
2024-01-16T04:17:57.841Z,72.80
2024-01-16T04:18:57.719Z,72.67
2024-01-16T04:19:57.682Z,72.11
2024-01-16T04:20:57.674Z,72.18
2024-01-16T04:21:57.609Z,73.01
2024-01-16T04:22:57.597Z,72.67
2024-01-16T04:23:57.585Z,72.46
2024-01-16T04:24:57.670Z,72.80
2024-01-16T04:25:57.685Z,73.32
2024-01-16T04:26:57.773Z,72.67
2024-01-16T04:27:58.917Z,72.46
2024-01-16T04:28:57.537Z,71.94
2024-01-16T04:29:57.493Z,71.97
2024-01-16T04:30:57.626Z,72.15
2024-01-16T04:31:57.493Z,71.66
2024-01-16T04:32:57.627Z,72.05
2024-01-16T04:33:57.548Z,72.32
2024-01-16T04:34:57.456Z,73.15
2024-01-16T04:35:57.511Z,72.67
2024-01-16T04:36:57.476Z,71.73
2024-01-16T04:37:57.425Z,71.49
2024-01-16T04:38:59.999Z,71.28
2024-01-16T04:39:57.406Z,71.32
2024-01-16T04:40:57.411Z,71.42
2024-01-16T04:41:57.360Z,71.18
2024-01-16T04:42:57.587Z,70.29
2024-01-16T04:43:57.365Z,69.70
2024-01-16T04:44:57.344Z,69.98
2024-01-16T04:45:58.658Z,69.64
2024-01-16T04:46:57.306Z,69.49
2024-01-16T04:47:57.401Z,70.07
2024-01-16T04:48:57.474Z,70.80
2024-01-16T04:49:57.308Z,70.42
2024-01-16T04:50:57.351Z,70.15
2024-01-16T04:51:57.295Z,70.15
2024-01-16T04:52:57.241Z,70.56
2024-01-16T04:53:57.263Z,70.76
2024-01-16T04:54:57.287Z,70.42
2024-01-16T04:55:57.246Z,70.01
2024-01-16T04:56:57.209Z,69.94
2024-01-16T04:57:57.220Z,70.04
2024-01-16T04:58:57.168Z,70.15
2024-01-16T04:59:57.222Z,70.15
2024-01-16T05:00:57.223Z,70.04
2024-01-16T05:01:57.159Z,70.04
2024-01-16T05:02:57.189Z,70.25
2024-01-16T05:03:57.246Z,70.04
2024-01-16T05:04:57.178Z,71.11
2024-01-16T05:05:57.222Z,70.97
2024-01-16T05:06:57.083Z,70.25
2024-01-16T05:07:57.109Z,70.28
2024-01-16T05:08:57.090Z,70.59
2024-01-16T05:09:57.064Z,70.56
2024-01-16T05:10:57.033Z,70.56
2024-01-16T05:11:57.082Z,70.15
2024-01-16T05:12:57.024Z,70.62
2024-01-16T05:13:57.001Z,71.35
2024-01-16T05:14:57.015Z,71.11
2024-01-16T05:15:57.010Z,70.87
2024-01-16T05:16:56.970Z,70.70
2024-01-16T05:17:57.070Z,70.67
2024-01-16T05:18:57.021Z,71.11
2024-01-16T05:19:56.943Z,71.49
2024-01-16T05:20:57.586Z,71.77
2024-01-16T05:21:56.928Z,71.45
2024-01-16T05:22:56.908Z,71.28
2024-01-16T05:23:56.930Z,71.45
2024-01-16T05:24:56.995Z,71.77
2024-01-16T05:25:56.957Z,71.77
2024-01-16T05:26:56.909Z,71.45
2024-01-16T05:27:56.867Z,71.73
2024-01-16T05:28:56.883Z,71.11
2024-01-16T05:29:56.983Z,71.22
2024-01-16T05:30:56.970Z,71.39
2024-01-16T05:31:56.899Z,72.97
2024-01-16T05:32:56.897Z,73.08
2024-01-16T05:33:56.898Z,73.05
2024-01-16T05:34:56.762Z,72.49
2024-01-16T05:35:56.826Z,73.11
2024-01-16T05:36:56.803Z,73.97
2024-01-16T05:37:56.780Z,74.29
2024-01-16T05:38:56.931Z,73.05
2024-01-16T05:39:56.812Z,73.22
2024-01-16T05:40:56.802Z,73.80
2024-01-16T05:41:57.641Z,74.01
2024-01-16T05:42:56.759Z,73.91
2024-01-16T05:43:56.917Z,73.77
2024-01-16T05:44:56.914Z,72.60
2024-01-16T05:45:56.712Z,72.18
2024-01-16T05:46:56.679Z,72.32
2024-01-16T05:47:56.789Z,72.70
2024-01-16T05:48:56.706Z,72.25
2024-01-16T05:49:56.793Z,71.53
2024-01-16T05:50:56.668Z,71.87
2024-01-16T05:51:56.622Z,71.84
2024-01-16T05:52:56.745Z,71.49
2024-01-16T05:53:56.632Z,71.22
2024-01-16T05:54:56.621Z,70.76
2024-01-16T05:55:56.614Z,71.22
2024-01-16T05:56:56.680Z,71.70
2024-01-16T05:57:56.613Z,72.22
2024-01-16T05:58:56.660Z,72.53
2024-01-16T05:59:56.566Z,72.22
2024-01-16T06:00:56.567Z,72.28
2024-01-16T06:01:56.609Z,72.11
2024-01-16T06:02:56.554Z,71.66
2024-01-16T06:03:56.521Z,71.35
2024-01-16T06:04:56.569Z,71.18
2024-01-16T06:05:56.747Z,70.70
2024-01-16T06:06:56.478Z,71.22
2024-01-16T06:07:56.460Z,71.11
2024-01-16T06:08:57.275Z,70.87
2024-01-16T06:09:56.408Z,70.11
2024-01-16T06:10:56.537Z,69.53
2024-01-16T06:11:56.497Z,69.84
2024-01-16T06:12:56.399Z,69.90
2024-01-16T06:13:56.385Z,69.60
2024-01-16T06:14:56.448Z,69.53
2024-01-16T06:15:56.345Z,69.73
2024-01-16T06:16:56.348Z,70.28
2024-01-16T06:17:56.515Z,70.59
2024-01-16T06:18:56.379Z,70.94
2024-01-16T06:19:56.392Z,71.04
2024-01-16T06:20:56.440Z,70.94
2024-01-16T06:21:56.268Z,70.97
2024-01-16T06:22:56.255Z,70.59
2024-01-16T06:23:56.404Z,69.76
2024-01-16T06:24:56.257Z,70.79
2024-01-16T06:25:56.298Z,71.59
2024-01-16T06:26:56.281Z,71.18
2024-01-16T06:27:56.274Z,71.25
2024-01-16T06:28:56.266Z,70.49
2024-01-16T06:29:56.448Z,70.21
2024-01-16T06:30:56.408Z,70.66
2024-01-16T06:31:56.271Z,71.28
2024-01-16T06:32:56.349Z,71.91
2024-01-16T06:33:56.402Z,71.77
2024-01-16T06:34:56.221Z,71.52
2024-01-16T06:35:56.294Z,72.90
2024-01-16T06:36:56.255Z,72.87
2024-01-16T06:37:56.151Z,72.80
2024-01-16T06:38:56.279Z,73.28
2024-01-16T06:39:56.243Z,74.18
2024-01-16T06:40:56.084Z,74.22
2024-01-16T06:41:56.095Z,73.05
2024-01-16T06:42:56.053Z,73.49
2024-01-16T06:43:56.117Z,74.70
2024-01-16T06:44:56.110Z,75.19
2024-01-16T06:45:56.151Z,75.12
2024-01-16T06:46:56.064Z,75.85
2024-01-16T06:47:56.214Z,76.12
2024-01-16T06:48:56.083Z,75.36
2024-01-16T06:49:55.941Z,75.43
2024-01-16T06:50:56.065Z,75.78
2024-01-16T06:51:56.066Z,74.95
2024-01-16T06:52:55.959Z,75.29
2024-01-16T06:53:55.997Z,75.40
2024-01-16T06:54:55.937Z,75.74
2024-01-16T06:55:55.911Z,75.92
2024-01-16T06:56:55.996Z,75.92
2024-01-16T06:57:55.928Z,75.46
2024-01-16T06:58:55.919Z,75.15
2024-01-16T06:59:56.112Z,75.09
2024-01-16T07:00:55.901Z,75.54
2024-01-16T07:01:55.847Z,75.92
2024-01-16T07:02:55.947Z,75.40
2024-01-16T07:03:55.910Z,75.60
2024-01-16T07:04:57.633Z,75.40
2024-01-16T07:05:55.917Z,75.71
2024-01-16T07:06:55.849Z,75.57
2024-01-16T07:07:55.823Z,75.05
2024-01-16T07:08:56.698Z,74.84
2024-01-16T07:09:55.809Z,74.53
2024-01-16T07:10:55.827Z,74.63
2024-01-16T07:11:55.867Z,74.43
2024-01-16T07:12:55.766Z,74.63
2024-01-16T07:13:55.718Z,74.88
2024-01-16T07:14:55.731Z,75.54
2024-01-16T07:15:55.662Z,75.95
2024-01-16T07:16:55.644Z,75.40
2024-01-16T07:17:55.810Z,75.22
2024-01-16T07:18:55.739Z,75.19
2024-01-16T07:19:55.768Z,75.09
2024-01-16T07:20:55.874Z,75.32
2024-01-16T07:21:55.581Z,75.29
2024-01-16T07:22:55.650Z,75.32
2024-01-16T07:23:55.617Z,75.85
2024-01-16T07:24:55.616Z,75.88
2024-01-16T07:25:55.543Z,75.67
2024-01-16T07:26:55.682Z,75.74
2024-01-16T07:27:55.551Z,75.09
2024-01-16T07:28:55.527Z,74.80
2024-01-16T07:29:55.597Z,74.70
2024-01-16T07:30:55.609Z,74.95
2024-01-16T07:31:55.521Z,75.05
2024-01-16T07:32:55.714Z,74.74
2024-01-16T07:33:55.641Z,75.05
2024-01-16T07:34:55.528Z,74.80
2024-01-16T07:35:55.476Z,74.08
2024-01-16T07:36:55.434Z,74.22
2024-01-16T07:37:55.520Z,74.88
2024-01-16T07:38:55.506Z,74.74
2024-01-16T07:39:55.388Z,74.29
2024-01-16T07:40:55.376Z,73.56
2024-01-16T07:41:55.435Z,73.49
2024-01-16T07:42:55.374Z,73.66
2024-01-16T07:43:55.365Z,73.25
2024-01-16T07:44:55.418Z,73.22
2024-01-16T07:45:55.345Z,73.04
2024-01-16T07:46:55.296Z,73.77
2024-01-16T07:47:55.393Z,73.22
2024-01-16T07:48:55.411Z,71.94
2024-01-16T07:49:55.351Z,71.94
2024-01-16T07:50:55.414Z,71.45
2024-01-16T07:51:55.297Z,72.04
2024-01-16T07:52:55.268Z,71.49
2024-01-16T07:53:55.294Z,70.90
2024-01-16T07:54:55.244Z,71.08
2024-01-16T07:55:55.290Z,70.56
2024-01-16T07:56:55.277Z,70.66
2024-01-16T07:57:55.306Z,70.21
2024-01-16T07:58:55.191Z,69.52
2024-01-16T07:59:55.291Z,69.69
2024-01-16T08:00:55.212Z,69.86
2024-01-16T08:01:55.177Z,70.90
2024-01-16T08:02:55.261Z,71.38
2024-01-16T08:03:55.193Z,71.76
2024-01-16T08:04:55.096Z,72.00
2024-01-16T08:05:55.196Z,72.73
2024-01-16T08:06:56.061Z,72.59
2024-01-16T08:07:55.124Z,72.17
2024-01-16T08:08:55.131Z,72.04
2024-01-16T08:09:55.224Z,71.94
2024-01-16T08:10:55.110Z,71.42
2024-01-16T08:11:55.100Z,71.21
2024-01-16T08:12:55.089Z,71.31
2024-01-16T08:13:54.979Z,72.07
2024-01-16T08:14:55.093Z,71.97
2024-01-16T08:15:55.050Z,71.66
2024-01-16T08:16:54.968Z,71.86
2024-01-16T08:17:55.183Z,72.07
2024-01-16T08:18:55.121Z,72.28
2024-01-16T08:19:54.995Z,72.04
2024-01-16T08:20:55.031Z,71.83
2024-01-16T08:21:54.972Z,71.52
2024-01-16T08:22:55.044Z,71.49
2024-01-16T08:23:55.072Z,71.04
2024-01-16T08:24:55.083Z,70.10
2024-01-16T08:25:54.916Z,70.10
2024-01-16T08:26:54.927Z,70.73
2024-01-16T08:27:54.966Z,70.31
2024-01-16T08:28:54.904Z,70.31
2024-01-16T08:29:54.976Z,70.14
2024-01-16T08:30:54.972Z,71.14
2024-01-16T08:31:55.103Z,70.56
2024-01-16T08:32:54.895Z,70.73
2024-01-16T08:33:55.073Z,70.42
2024-01-16T08:34:54.919Z,70.25
2024-01-16T08:35:54.867Z,70.62
2024-01-16T08:36:54.865Z,69.97
2024-01-16T08:37:54.795Z,69.73
2024-01-16T08:38:54.833Z,69.04
2024-01-16T08:39:54.794Z,69.24
2024-01-16T08:40:54.731Z,69.93
2024-01-16T08:41:54.836Z,70.52
2024-01-16T08:42:57.744Z,70.28
2024-01-16T08:43:54.679Z,69.53
2024-01-16T08:44:54.735Z,69.01
2024-01-16T08:45:54.766Z,69.35
2024-01-16T08:46:54.684Z,69.42
2024-01-16T08:47:54.853Z,69.01
2024-01-16T08:48:54.777Z,68.35
2024-01-16T08:49:54.668Z,68.21
2024-01-16T08:50:54.718Z,69.14
2024-01-16T08:51:54.765Z,69.59
2024-01-16T08:52:54.605Z,69.24
2024-01-16T08:53:54.778Z,69.24
2024-01-16T08:54:54.610Z,69.38
2024-01-16T08:55:54.600Z,69.87
2024-01-16T08:56:54.644Z,69.42
2024-01-16T08:57:54.540Z,68.87
2024-01-16T08:58:54.600Z,68.18
2024-01-16T08:59:54.750Z,68.93
2024-01-16T09:00:54.565Z,69.14
2024-01-16T09:01:54.862Z,69.35
2024-01-16T09:02:54.569Z,68.98
2024-01-16T09:03:54.581Z,68.22
2024-01-16T09:04:54.565Z,68.22
2024-01-16T09:05:54.696Z,67.77
2024-01-16T09:06:54.558Z,67.05
2024-01-16T09:07:54.393Z,67.76
2024-01-16T09:08:54.441Z,68.43
2024-01-16T09:09:54.401Z,67.60
2024-01-16T09:10:54.371Z,67.70
2024-01-16T09:11:54.359Z,67.63
2024-01-16T09:12:54.427Z,68.35
2024-01-16T09:13:54.311Z,68.25
2024-01-16T09:14:54.400Z,68.18
2024-01-16T09:15:54.330Z,68.56
2024-01-16T09:16:54.311Z,68.15
2024-01-16T09:17:54.397Z,68.38
2024-01-16T09:18:54.413Z,69.35
2024-01-16T09:19:54.283Z,69.35
2024-01-16T09:20:54.334Z,69.42
2024-01-16T09:21:54.277Z,69.53
2024-01-16T09:22:54.273Z,69.07
2024-01-16T09:23:54.389Z,69.90
2024-01-16T09:24:54.208Z,69.66
2024-01-16T09:25:54.220Z,69.21
2024-01-16T09:26:54.300Z,68.80
2024-01-16T09:27:54.184Z,68.56
2024-01-16T09:28:54.210Z,68.01
2024-01-16T09:29:54.191Z,67.36
2024-01-16T09:30:54.157Z,67.21
2024-01-16T09:31:54.112Z,68.15
2024-01-16T09:32:54.197Z,68.56
2024-01-16T09:33:54.272Z,69.53
2024-01-16T09:34:54.164Z,69.45
2024-01-16T09:35:54.250Z,69.56
2024-01-16T09:36:54.072Z,70.31
2024-01-16T09:37:54.045Z,70.45
2024-01-16T09:38:54.125Z,70.39
2024-01-16T09:39:54.083Z,70.07
2024-01-16T09:40:54.079Z,69.53
2024-01-16T09:41:54.044Z,69.01
2024-01-16T09:42:54.005Z,68.77
2024-01-16T09:43:53.972Z,69.08
2024-01-16T09:44:54.082Z,69.18
2024-01-16T09:45:53.967Z,68.56
2024-01-16T09:46:54.002Z,68.87
2024-01-16T09:47:54.868Z,68.25
2024-01-16T09:48:54.031Z,68.01
2024-01-16T09:49:53.900Z,67.49
2024-01-16T09:50:54.068Z,67.80
2024-01-16T09:51:54.044Z,68.01
2024-01-16T09:52:55.079Z,67.80
2024-01-16T09:53:54.060Z,68.00
2024-01-16T09:54:53.927Z,69.55
2024-01-16T09:55:53.923Z,70.66
2024-01-16T09:56:53.996Z,70.73
2024-01-16T09:57:53.878Z,69.45
2024-01-16T09:58:53.849Z,68.96
2024-01-16T09:59:53.989Z,69.93
2024-01-16T10:00:53.937Z,70.10
2024-01-16T10:01:53.830Z,69.87
2024-01-16T10:02:53.901Z,69.69
2024-01-16T10:03:54.198Z,68.83
2024-01-16T10:04:53.802Z,69.11
2024-01-16T10:05:53.880Z,68.98
2024-01-16T10:06:53.886Z,68.46
2024-01-16T10:07:53.779Z,68.12
2024-01-16T10:08:53.842Z,67.63
2024-01-16T10:09:53.775Z,68.38
2024-01-16T10:10:53.796Z,68.96
2024-01-16T10:11:53.926Z,69.48
2024-01-16T10:12:53.766Z,69.45
2024-01-16T10:13:53.702Z,69.38
2024-01-16T10:14:53.783Z,70.31
2024-01-16T10:15:53.802Z,70.00
2024-01-16T10:16:53.634Z,69.66
2024-01-16T10:17:53.786Z,69.32
2024-01-16T10:18:53.746Z,69.04
2024-01-16T10:19:53.724Z,69.14
2024-01-16T10:20:53.711Z,69.35
2024-01-16T10:21:53.625Z,68.87
2024-01-16T10:22:53.618Z,67.94
2024-01-16T10:23:53.750Z,68.59
2024-01-16T10:24:53.558Z,68.49
2024-01-16T10:25:53.546Z,68.70
2024-01-16T10:26:53.680Z,68.59
2024-01-16T10:27:53.498Z,68.70
2024-01-16T10:28:53.568Z,68.49
2024-01-16T10:29:53.736Z,68.41
2024-01-16T10:30:53.630Z,69.04
2024-01-16T10:31:53.646Z,69.24
2024-01-16T10:32:53.568Z,68.80
2024-01-16T10:33:53.595Z,68.46
2024-01-16T10:34:53.462Z,67.91
2024-01-16T10:35:53.417Z,67.29
2024-01-16T10:36:53.386Z,67.08
2024-01-16T10:37:53.417Z,67.86
2024-01-16T10:38:53.444Z,68.18
2024-01-16T10:39:53.342Z,68.46
2024-01-16T10:40:53.380Z,68.04
2024-01-16T10:41:53.367Z,67.63
2024-01-16T10:42:53.307Z,67.42
2024-01-16T10:43:53.362Z,67.97
2024-01-16T10:44:53.298Z,68.38
2024-01-16T10:45:53.359Z,67.77
2024-01-16T10:46:53.292Z,67.42
2024-01-16T10:47:53.339Z,67.70
2024-01-16T10:48:53.256Z,66.77
2024-01-16T10:49:53.596Z,67.18
2024-01-16T10:50:53.313Z,67.32
2024-01-16T10:51:53.229Z,67.63
2024-01-16T10:52:53.208Z,67.05
2024-01-16T10:53:53.285Z,66.39
2024-01-16T10:54:53.198Z,66.36
2024-01-16T10:55:53.340Z,65.64
2024-01-16T10:56:53.187Z,64.86
2024-01-16T10:57:53.146Z,64.37
2024-01-16T10:58:53.120Z,64.89
2024-01-16T10:59:53.154Z,64.14
2024-01-16T11:00:53.180Z,64.20
2024-01-16T11:01:53.145Z,64.99
2024-01-16T11:02:53.459Z,64.14
2024-01-16T11:03:53.524Z,64.14
2024-01-16T11:04:53.191Z,64.52
2024-01-16T11:05:53.207Z,63.15
2024-01-16T11:06:53.321Z,62.74
2024-01-16T11:07:53.148Z,61.70
2024-01-16T11:08:53.222Z,61.83
2024-01-16T11:09:53.080Z,61.63
2024-01-16T11:10:53.059Z,62.38
2024-01-16T11:11:53.115Z,62.79
2024-01-16T11:12:53.009Z,63.18
2024-01-16T11:13:53.023Z,62.90
2024-01-16T11:14:53.137Z,63.85
2024-01-16T11:15:52.933Z,64.40
2024-01-16T11:16:52.942Z,64.78
2024-01-16T11:17:52.997Z,64.03
2024-01-16T11:18:52.997Z,63.13
2024-01-16T11:20:07.351Z,63.99
2024-01-16T11:21:04.575Z,65.12
2024-01-16T11:21:53.973Z,64.96
2024-01-16T11:22:52.916Z,64.14
2024-01-16T11:23:53.074Z,63.82
2024-01-16T11:24:52.845Z,64.20
2024-01-16T11:25:52.859Z,64.51
2024-01-16T11:26:52.879Z,64.81
2024-01-16T11:27:52.796Z,64.92
2024-01-16T11:28:52.776Z,65.16
2024-01-16T11:29:52.886Z,65.33
2024-01-16T11:30:52.893Z,64.92
2024-01-16T11:32:01.121Z,64.68
2024-01-16T11:32:54.104Z,63.99
2024-01-16T11:33:52.833Z,64.98
2024-01-16T11:34:52.825Z,65.44
2024-01-16T11:35:52.784Z,64.76
2024-01-16T11:36:52.814Z,63.75
2024-01-16T11:37:52.687Z,63.78
2024-01-16T11:38:52.763Z,64.81
2024-01-16T11:39:52.693Z,64.48
2024-01-16T11:40:52.750Z,64.17
2024-01-16T11:41:52.906Z,63.51
2024-01-16T11:42:52.712Z,64.58
2024-01-16T11:43:52.658Z,64.14
2024-01-16T11:44:52.689Z,62.87
2024-01-16T11:45:53.475Z,62.79
2024-01-16T11:46:52.583Z,62.51
2024-01-16T11:47:52.644Z,63.03
2024-01-16T11:48:52.694Z,63.54
2024-01-16T11:49:52.598Z,63.85
2024-01-16T11:50:52.616Z,63.51
2024-01-16T11:51:52.582Z,62.97
2024-01-16T11:52:52.537Z,62.66
2024-01-16T11:53:52.558Z,62.46
2024-01-16T11:54:52.499Z,62.22
2024-01-16T11:55:52.715Z,61.68
2024-01-16T11:56:52.650Z,60.75
2024-01-16T11:57:52.467Z,60.67
2024-01-16T11:58:52.452Z,60.91
2024-01-16T11:59:52.479Z,62.07
2024-01-16T12:00:52.536Z,62.59
2024-01-16T12:01:52.468Z,62.12
2024-01-16T12:02:52.665Z,62.04
2024-01-16T12:03:52.400Z,62.63
2024-01-16T12:04:52.443Z,61.85
2024-01-16T12:05:52.601Z,60.82
2024-01-16T12:06:52.505Z,58.97
2024-01-16T12:07:52.500Z,58.86
2024-01-16T12:08:52.405Z,56.34
2024-01-16T12:09:52.422Z,57.21
2024-01-16T12:10:52.356Z,58.45
2024-01-16T12:11:52.399Z,59.46
2024-01-16T12:12:52.402Z,59.23
2024-01-16T12:13:52.322Z,58.25
2024-01-16T12:14:52.408Z,59.46
2024-01-16T12:15:52.318Z,60.67
2024-01-16T12:16:52.306Z,59.74
2024-01-16T12:17:52.423Z,56.52
2024-01-16T12:18:52.409Z,56.60
2024-01-16T12:19:52.329Z,55.82
2024-01-16T12:20:52.309Z,54.09
2024-01-16T12:21:52.235Z,54.02
2024-01-16T12:22:52.189Z,55.10
2024-01-16T12:24:00.181Z,56.39
2024-01-16T12:24:53.223Z,58.45
2024-01-16T12:26:01.888Z,58.12
2024-01-16T12:26:53.215Z,59.02
2024-01-16T12:27:52.115Z,60.26
2024-01-16T12:28:52.105Z,60.36
2024-01-16T12:29:52.196Z,62.51
2024-01-16T12:30:52.331Z,61.87
2024-01-16T12:31:52.200Z,62.82
2024-01-16T12:32:58.749Z,62.72
2024-01-16T12:34:01.462Z,63.62
2024-01-16T12:34:53.183Z,62.59
2024-01-16T12:35:52.172Z,60.49
2024-01-16T12:36:52.151Z,60.18
2024-01-16T12:37:52.090Z,58.92
2024-01-16T12:38:52.095Z,59.20
2024-01-16T12:39:52.046Z,56.39
2024-01-16T12:40:51.985Z,54.53
2024-01-16T12:41:52.036Z,53.53
2024-01-16T12:42:52.025Z,52.86
2024-01-16T12:44:00.640Z,53.58
2024-01-16T12:44:53.037Z,53.65
2024-01-16T12:45:51.973Z,54.50
2024-01-16T12:46:51.919Z,54.91
2024-01-16T12:47:54.471Z,54.38
2024-01-16T12:49:00.311Z,54.38
2024-01-16T12:49:52.953Z,54.14
2024-01-16T12:50:52.050Z,54.12
2024-01-16T12:51:51.901Z,53.99